createdAt,value
2019-05-19T00:00:16.856Z,13.91
2019-05-19T00:01:16.829Z,13.88
2019-05-19T00:02:16.814Z,13.88
2019-05-19T00:03:16.789Z,13.92
2019-05-19T00:04:16.782Z,13.89
2019-05-19T00:05:16.774Z,13.95
2019-05-19T00:06:16.737Z,13.88
2019-05-19T00:07:16.721Z,13.89
2019-05-19T00:08:16.708Z,13.88
2019-05-19T00:09:16.817Z,13.75
2019-05-19T00:10:16.686Z,13.82
2019-05-19T06:09:28.796Z,13.15
2019-05-19T06:10:28.760Z,13.28
2019-05-19T06:11:28.740Z,13.25
2019-05-19T06:12:28.733Z,13.48
2019-05-19T06:13:28.697Z,13.44
2019-05-19T06:14:28.678Z,13.55
2019-05-19T06:15:28.672Z,13.64
2019-05-19T06:16:28.637Z,13.62
2019-05-19T06:17:28.653Z,13.67
2019-05-19T06:18:28.603Z,13.71
2019-05-19T06:19:28.579Z,13.81
2019-05-19T06:20:28.560Z,13.71
2019-05-19T06:21:28.544Z,13.75
2019-05-19T06:22:28.527Z,13.77
2019-05-19T06:23:28.518Z,13.91
2019-05-19T06:24:28.488Z,14.09
2019-05-19T06:25:28.513Z,14.07
2019-05-19T06:26:28.450Z,14.20
2019-05-19T06:27:28.433Z,14.02
2019-05-19T06:28:28.428Z,14.18
2019-05-19T06:29:28.400Z,14.28
2019-05-19T06:30:28.378Z,14.33
2019-05-19T06:31:28.361Z,14.37
2019-05-19T06:32:28.346Z,14.47
2019-05-19T06:33:28.351Z,14.55
2019-05-19T06:34:28.307Z,14.51
2019-05-19T06:35:28.290Z,14.60
2019-05-19T06:36:28.273Z,14.43
2019-05-19T06:37:28.255Z,14.61
2019-05-19T06:38:28.243Z,14.73
2019-05-19T06:39:28.235Z,14.78
2019-05-19T06:40:28.216Z,14.95
2019-05-19T06:41:28.187Z,14.96
2019-05-19T06:42:28.174Z,15.09
2019-05-19T06:43:28.157Z,15.01
2019-05-19T06:44:28.154Z,14.84
2019-05-19T06:45:28.130Z,14.77
2019-05-19T06:46:28.102Z,14.75
2019-05-19T06:47:28.085Z,14.89
2019-05-19T06:48:28.071Z,15.16
2019-05-19T06:49:28.065Z,15.39
2019-05-19T06:50:28.037Z,15.68
2019-05-19T06:51:28.075Z,15.84
2019-05-19T06:52:28.005Z,15.96
2019-05-19T06:53:27.993Z,16.08
2019-05-19T06:54:27.992Z,16.23
2019-05-19T06:55:27.971Z,16.30
2019-05-19T06:56:27.942Z,16.34
2019-05-19T06:57:27.926Z,16.34
2019-05-19T06:58:27.909Z,16.45
2019-05-19T06:59:27.890Z,16.48
2019-05-19T07:00:27.886Z,16.43
2019-05-19T07:01:27.860Z,16.46
2019-05-19T07:02:27.845Z,16.45
2019-05-19T07:03:27.886Z,16.39
2019-05-19T07:04:27.807Z,16.50
2019-05-19T07:05:28.542Z,16.50
2019-05-19T07:06:27.964Z,16.45
2019-05-19T07:07:27.760Z,16.31
2019-05-19T07:08:27.781Z,16.14
2019-05-19T07:09:27.748Z,16.17
2019-05-19T07:10:27.735Z,16.08
2019-05-19T07:11:27.709Z,16.14
2019-05-19T07:12:27.683Z,16.07
2019-05-19T07:13:27.696Z,16.11
2019-05-19T07:14:27.652Z,16.09
2019-05-19T07:15:27.639Z,16.20
2019-05-19T07:16:27.635Z,16.08
2019-05-19T07:17:27.607Z,15.92
2019-05-19T07:18:27.589Z,16.11
2019-05-19T07:19:27.572Z,16.27
2019-05-19T07:20:27.557Z,16.43
2019-05-19T07:21:27.558Z,16.52
2019-05-19T07:22:27.531Z,16.66
2019-05-19T07:23:28.787Z,16.60
2019-05-19T07:24:27.497Z,16.57
2019-05-19T07:25:27.483Z,16.43
2019-05-19T07:26:27.486Z,16.52
2019-05-19T07:27:27.451Z,16.48
2019-05-19T07:28:27.435Z,16.35
2019-05-19T07:29:27.421Z,16.53
2019-05-19T07:30:27.410Z,16.42
2019-05-19T07:31:27.409Z,16.45
2019-05-19T07:32:27.374Z,16.71
2019-05-19T07:33:27.360Z,16.79
2019-05-19T07:34:27.403Z,17.01
2019-05-19T07:35:27.329Z,17.15
2019-05-19T07:36:27.334Z,17.30
2019-05-19T07:37:27.316Z,17.18
2019-05-19T07:38:27.286Z,17.14
2019-05-19T07:39:27.271Z,17.34
2019-05-19T07:40:27.272Z,17.34
2019-05-19T07:41:27.244Z,17.28
2019-05-19T07:42:27.240Z,17.25
2019-05-19T07:43:27.212Z,17.11
2019-05-19T07:44:27.198Z,17.18
2019-05-19T07:45:27.181Z,17.37
2019-05-19T07:46:27.166Z,17.52
2019-05-19T07:47:27.990Z,17.68
2019-05-19T07:48:27.138Z,17.58
2019-05-19T07:49:27.274Z,17.86
2019-05-19T07:50:27.110Z,18.08
2019-05-19T07:51:27.093Z,18.08
2019-05-19T07:52:27.087Z,17.96
2019-05-19T07:53:27.081Z,17.89
2019-05-19T07:54:27.057Z,17.97
2019-05-19T07:55:27.048Z,17.96
2019-05-19T07:56:27.034Z,17.66
2019-05-19T07:57:27.008Z,17.30
2019-05-19T07:58:27.044Z,17.03
2019-05-19T07:59:26.976Z,17.00
2019-05-19T08:00:26.968Z,17.18
2019-05-19T08:01:26.954Z,17.26
2019-05-19T08:02:26.938Z,17.40
2019-05-19T08:03:26.937Z,17.38
2019-05-19T08:04:26.913Z,17.54
2019-05-19T08:05:26.895Z,17.63
2019-05-19T08:06:26.882Z,17.51
2019-05-19T08:07:26.869Z,17.59
2019-05-19T08:08:26.890Z,17.52
2019-05-19T08:09:26.851Z,17.66
2019-05-19T08:10:26.824Z,17.77
2019-05-19T08:11:27.079Z,17.33
2019-05-19T08:12:26.797Z,17.16
2019-05-19T08:13:26.783Z,17.15
2019-05-19T08:14:26.786Z,17.55
2019-05-19T08:15:26.755Z,17.63
2019-05-19T08:16:26.776Z,17.63
2019-05-19T08:17:26.727Z,17.86
2019-05-19T08:18:26.863Z,18.17
2019-05-19T08:19:26.712Z,18.27
2019-05-19T08:20:26.684Z,18.27
2019-05-19T08:21:26.732Z,18.05
2019-05-19T08:22:26.658Z,18.15
2019-05-19T08:23:26.643Z,18.11
2019-05-19T08:24:26.643Z,18.10
2019-05-19T08:25:26.619Z,18.18
2019-05-19T08:26:26.602Z,18.05
2019-05-19T08:27:26.589Z,18.21
2019-05-19T08:28:26.573Z,18.26
2019-05-19T08:29:26.576Z,18.52
2019-05-19T08:30:26.574Z,18.30
2019-05-19T08:31:26.547Z,17.99
2019-05-19T08:32:26.520Z,18.10
2019-05-19T08:33:26.518Z,17.89
2019-05-19T08:34:26.519Z,18.14
2019-05-19T08:35:26.482Z,18.29
2019-05-19T08:36:26.471Z,18.10
2019-05-19T08:37:26.475Z,17.95
2019-05-19T08:38:26.439Z,17.96
2019-05-19T08:39:26.427Z,17.78
2019-05-19T08:40:26.427Z,17.92
2019-05-19T08:41:26.399Z,17.68
2019-05-19T08:42:26.383Z,17.71
2019-05-19T08:43:26.370Z,17.81
2019-05-19T08:44:26.358Z,18.10
2019-05-19T08:45:26.362Z,18.03
2019-05-19T08:46:26.341Z,18.17
2019-05-19T08:47:26.319Z,18.08
2019-05-19T08:48:26.302Z,18.11
2019-05-19T08:49:26.316Z,18.37
2019-05-19T08:50:26.292Z,18.47
2019-05-19T08:51:26.261Z,18.62
2019-05-19T08:52:26.247Z,18.54
2019-05-19T08:53:26.331Z,18.26
2019-05-19T08:54:26.222Z,18.11
2019-05-19T08:55:26.222Z,18.23
2019-05-19T08:56:26.196Z,17.96
2019-05-19T08:57:26.186Z,17.92
2019-05-19T08:58:26.167Z,18.25
2019-05-19T08:59:26.190Z,18.41
2019-05-19T09:00:26.153Z,18.42
2019-05-19T09:01:26.125Z,18.72
2019-05-19T09:02:26.112Z,18.85
2019-05-19T09:03:26.102Z,18.87
2019-05-19T09:04:26.085Z,18.87
2019-05-19T09:05:26.100Z,18.85
2019-05-19T09:06:26.059Z,18.88
2019-05-19T09:07:26.042Z,18.82
2019-05-19T09:08:26.035Z,18.87
2019-05-19T09:09:26.020Z,18.90
2019-05-19T09:10:26.003Z,18.91
2019-05-19T09:11:26.002Z,18.95
2019-05-19T09:12:25.975Z,18.87
2019-05-19T09:13:25.963Z,18.85
2019-05-19T09:14:25.946Z,18.90
2019-05-19T09:15:25.933Z,18.88
2019-05-19T09:16:25.935Z,18.92
2019-05-19T09:17:25.917Z,19.04
2019-05-19T09:18:25.894Z,18.95
2019-05-19T09:19:25.883Z,19.11
2019-05-19T09:20:25.868Z,19.16
2019-05-19T09:21:25.875Z,19.06
2019-05-19T09:22:25.841Z,19.18
2019-05-19T09:23:25.828Z,18.91
2019-05-19T09:24:30.362Z,19.00
2019-05-19T09:25:25.810Z,19.21
2019-05-19T09:26:25.808Z,19.13
2019-05-19T09:27:25.771Z,19.16
2019-05-19T09:28:25.758Z,19.06
2019-05-19T09:29:25.745Z,18.92
2019-05-19T09:30:25.731Z,18.92
2019-05-19T09:31:25.717Z,19.04
2019-05-19T09:32:25.722Z,18.98
2019-05-19T09:33:25.689Z,19.10
2019-05-19T09:34:25.677Z,19.32
2019-05-19T09:35:25.661Z,19.14
2019-05-19T09:36:25.657Z,19.26
2019-05-19T09:37:25.651Z,19.43
2019-05-19T09:38:25.649Z,19.18
2019-05-19T09:39:25.609Z,19.39
2019-05-19T09:40:26.775Z,19.51
2019-05-19T09:41:25.595Z,19.58
2019-05-19T09:42:25.584Z,19.65
2019-05-19T09:43:25.557Z,19.83
2019-05-19T09:44:25.543Z,19.81
2019-05-19T09:45:25.531Z,19.95
2019-05-19T09:46:25.517Z,19.95
2019-05-19T09:47:25.517Z,20.18
2019-05-19T09:48:25.493Z,20.26
2019-05-19T09:49:25.479Z,20.42
2019-05-19T09:50:25.465Z,20.36
2019-05-19T09:51:25.450Z,20.47
2019-05-19T09:52:25.477Z,20.17
2019-05-19T09:53:25.426Z,20.10
2019-05-19T09:54:25.417Z,20.35
2019-05-19T09:55:25.399Z,20.43
2019-05-19T09:56:25.386Z,20.42
2019-05-19T09:57:25.373Z,20.55
2019-05-19T09:58:25.373Z,20.32
2019-05-19T09:59:25.347Z,20.35
2019-05-19T10:00:25.335Z,20.03
2019-05-19T10:01:25.323Z,20.18
2019-05-19T10:02:25.308Z,20.50
2019-05-19T10:03:25.311Z,20.74
2019-05-19T10:04:25.291Z,20.74
2019-05-19T10:05:25.272Z,20.89
2019-05-19T10:06:25.262Z,20.74
2019-05-19T10:07:25.244Z,20.85
2019-05-19T10:08:25.253Z,20.64
2019-05-19T10:09:25.221Z,20.62
2019-05-19T10:10:25.210Z,20.91
2019-05-19T10:11:25.199Z,20.77
2019-05-19T10:12:25.182Z,20.72
2019-05-19T10:13:25.188Z,20.61
2019-05-19T10:14:25.159Z,20.41
2019-05-19T10:15:25.144Z,20.43
2019-05-19T10:16:25.137Z,20.59
2019-05-19T10:17:25.119Z,20.88
2019-05-19T10:18:25.109Z,21.19
2019-05-19T10:19:25.111Z,21.19
2019-05-19T10:20:25.083Z,21.43
2019-05-19T10:21:25.069Z,21.29
2019-05-19T10:22:25.060Z,21.09
2019-05-19T10:23:25.043Z,21.29
2019-05-19T10:24:25.049Z,20.87
2019-05-19T10:25:25.043Z,21.16
2019-05-19T10:26:25.008Z,21.28
2019-05-19T10:27:24.994Z,21.40
2019-05-19T10:28:24.982Z,21.56
2019-05-19T10:29:24.991Z,21.47
2019-05-19T10:30:24.964Z,21.32
2019-05-19T10:31:24.944Z,21.16
2019-05-19T10:32:24.934Z,21.24
2019-05-19T10:33:24.921Z,21.21
2019-05-19T10:34:24.909Z,21.25
2019-05-19T10:35:24.910Z,21.32
2019-05-19T10:36:24.884Z,21.24
2019-05-19T10:37:24.872Z,21.54
2019-05-19T10:38:24.863Z,21.54
2019-05-19T10:39:24.851Z,21.67
2019-05-19T10:40:24.855Z,21.79
2019-05-19T10:41:24.822Z,21.86
2019-05-19T10:42:24.813Z,21.88
2019-05-19T10:43:24.799Z,21.69
2019-05-19T10:44:24.788Z,21.58
2019-05-19T10:45:24.812Z,21.71
2019-05-19T10:46:24.764Z,21.72
2019-05-19T10:47:24.803Z,21.80
2019-05-19T10:48:24.740Z,21.42
2019-05-19T10:49:24.729Z,21.64
2019-05-19T10:50:24.719Z,21.71
2019-05-19T10:51:24.720Z,21.69
2019-05-19T10:52:24.707Z,21.71
2019-05-19T10:53:24.683Z,21.49
2019-05-19T10:54:24.672Z,21.29
2019-05-19T10:55:35.971Z,21.43
2019-05-19T10:56:24.671Z,21.56
2019-05-19T10:57:24.635Z,21.38
2019-05-19T10:58:24.614Z,21.71
2019-05-19T10:59:24.601Z,21.72
2019-05-19T11:00:24.590Z,21.88
2019-05-19T11:01:24.577Z,21.50
2019-05-19T11:02:24.580Z,21.49
2019-05-19T11:03:24.554Z,21.50
2019-05-19T11:04:24.543Z,21.61
2019-05-19T11:05:24.527Z,21.88
2019-05-19T11:06:25.511Z,22.22
2019-05-19T11:07:24.516Z,22.57
2019-05-19T11:08:24.495Z,22.45
2019-05-19T11:09:24.480Z,22.37
2019-05-19T11:10:24.471Z,22.73
2019-05-19T11:11:24.455Z,22.73
2019-05-19T11:12:24.491Z,22.33
2019-05-19T11:13:24.475Z,22.47
2019-05-19T11:14:24.421Z,22.24
2019-05-19T11:15:24.410Z,22.31
2019-05-19T11:16:24.401Z,22.42
2019-05-19T11:17:24.385Z,22.83
2019-05-19T11:18:24.499Z,23.07
2019-05-19T11:19:24.389Z,23.42
2019-05-19T11:20:24.349Z,23.16
2019-05-19T11:21:24.335Z,23.23
2019-05-19T11:22:24.339Z,23.17
2019-05-19T11:23:24.359Z,23.32
2019-05-19T11:24:24.311Z,23.01
2019-05-19T11:25:33.376Z,23.00
2019-05-19T11:26:24.278Z,23.09
2019-05-19T11:27:24.271Z,23.16
2019-05-19T11:28:24.478Z,23.40
2019-05-19T11:29:24.243Z,23.55
2019-05-19T11:30:24.233Z,23.53
2019-05-19T11:31:24.219Z,23.33
2019-05-19T11:32:24.210Z,23.33
2019-05-19T11:33:24.197Z,23.39
2019-05-19T11:34:24.211Z,23.10
2019-05-19T11:35:24.174Z,23.07
2019-05-19T11:36:24.166Z,22.95
2019-05-19T11:37:24.153Z,22.95
2019-05-19T11:38:24.148Z,23.12
2019-05-19T11:39:24.143Z,23.20
2019-05-19T11:40:24.117Z,23.33
2019-05-19T11:41:24.132Z,23.16
2019-05-19T11:42:24.096Z,23.25
2019-05-19T11:43:24.085Z,23.35
2019-05-19T11:44:24.109Z,23.73
2019-05-19T11:45:24.060Z,23.61
2019-05-19T11:46:24.049Z,23.04
2019-05-19T11:47:24.037Z,22.94
2019-05-19T11:48:24.025Z,22.91
2019-05-19T11:49:24.019Z,22.90
2019-05-19T11:50:24.018Z,23.13
2019-05-19T11:51:24.036Z,23.23
2019-05-19T11:52:23.980Z,23.33
2019-05-19T11:53:23.973Z,23.05
2019-05-19T11:54:23.958Z,22.39
2019-05-19T11:55:23.963Z,22.58
2019-05-19T11:56:23.951Z,22.90
2019-05-19T11:57:24.109Z,22.95
2019-05-19T11:58:24.002Z,22.43
2019-05-19T11:59:23.914Z,22.22
2019-05-19T12:00:23.961Z,22.42
2019-05-19T12:01:23.924Z,22.67
2019-05-19T12:02:23.875Z,22.83
2019-05-19T12:03:23.862Z,22.73
2019-05-19T12:04:23.867Z,22.92
2019-05-19T12:05:23.892Z,22.58
2019-05-19T12:06:38.006Z,22.33
2019-05-19T12:07:23.814Z,22.43
2019-05-19T12:08:23.808Z,22.57
2019-05-19T12:09:23.825Z,22.73
2019-05-19T12:10:23.783Z,22.79
2019-05-19T12:11:23.782Z,22.57
2019-05-19T12:12:23.758Z,22.62
2019-05-19T12:13:23.750Z,22.70
2019-05-19T12:14:23.742Z,22.60
2019-05-19T12:15:23.727Z,22.25
2019-05-19T12:16:23.754Z,22.30
2019-05-19T12:17:23.702Z,22.39
2019-05-19T12:18:23.694Z,22.51
2019-05-19T12:19:23.719Z,22.57
2019-05-19T12:20:23.670Z,22.61
2019-05-19T12:21:23.659Z,22.22
2019-05-19T12:22:23.676Z,22.31
2019-05-19T12:23:23.651Z,22.45
2019-05-19T12:24:23.637Z,22.72
2019-05-19T12:25:23.692Z,22.85
2019-05-19T12:26:23.912Z,22.94
2019-05-19T12:27:23.617Z,23.07
2019-05-19T12:28:23.589Z,22.95
2019-05-19T12:29:23.571Z,22.80
2019-05-19T12:30:23.558Z,22.54
2019-05-19T12:31:23.553Z,22.28
2019-05-19T12:32:23.559Z,22.55
2019-05-19T12:33:23.527Z,22.37
2019-05-19T12:34:23.520Z,22.49
2019-05-19T12:35:23.516Z,22.83
2019-05-19T12:36:23.497Z,22.62
2019-05-19T12:37:23.520Z,22.85
2019-05-19T12:38:23.468Z,22.88
2019-05-19T12:39:23.462Z,23.31
2019-05-19T12:40:23.448Z,23.25
2019-05-19T12:41:23.440Z,23.61
2019-05-19T12:42:23.431Z,23.43
2019-05-19T12:43:23.434Z,23.61
2019-05-19T12:44:23.405Z,23.68
2019-05-19T12:45:23.392Z,23.88
2019-05-19T12:46:23.384Z,23.53
2019-05-19T12:47:23.381Z,23.32
2019-05-19T12:48:23.375Z,23.53
2019-05-19T12:49:23.351Z,23.87
2019-05-19T12:50:23.337Z,24.52
2019-05-19T12:51:26.662Z,24.28
2019-05-19T12:52:23.315Z,24.83
2019-05-19T12:53:23.342Z,24.34
2019-05-19T12:54:23.306Z,24.62
2019-05-19T12:55:23.284Z,24.52
2019-05-19T12:56:37.128Z,24.96
2019-05-19T12:57:23.262Z,24.52
2019-05-19T12:58:23.272Z,24.64
2019-05-19T12:59:23.240Z,23.98
2019-05-19T13:00:23.231Z,24.06
2019-05-19T13:01:23.222Z,24.21
2019-05-19T13:02:23.284Z,23.85
2019-05-19T13:03:23.201Z,23.78
2019-05-19T13:04:23.207Z,23.98
2019-05-19T13:05:23.182Z,24.08
2019-05-19T13:06:23.172Z,23.72
2019-05-19T13:07:23.162Z,23.60
2019-05-19T13:08:23.152Z,23.53
2019-05-19T13:09:23.157Z,23.57
2019-05-19T13:10:23.135Z,23.72
2019-05-19T13:11:23.123Z,23.98
2019-05-19T13:12:23.114Z,24.27
2019-05-19T13:13:23.104Z,23.78
2019-05-19T13:14:23.108Z,23.70
2019-05-19T13:15:23.087Z,23.40
2019-05-19T13:16:23.076Z,23.68
2019-05-19T13:17:23.064Z,23.72
2019-05-19T13:18:23.055Z,23.78
2019-05-19T13:19:23.075Z,23.50
2019-05-19T13:20:23.034Z,23.27
2019-05-19T13:21:23.026Z,22.98
2019-05-19T13:22:23.015Z,22.80
2019-05-19T13:23:23.007Z,22.45
2019-05-19T13:24:22.997Z,22.28
2019-05-19T13:25:23.004Z,22.24
2019-05-19T13:26:22.974Z,21.99
2019-05-19T13:27:22.966Z,21.98
2019-05-19T13:28:22.952Z,21.69
2019-05-19T13:29:22.942Z,21.52
2019-05-19T13:30:22.954Z,21.43
2019-05-19T13:31:22.916Z,21.40
2019-05-19T13:32:22.910Z,21.37
2019-05-19T13:33:22.896Z,21.42
2019-05-19T13:34:22.887Z,21.27
2019-05-19T13:35:22.886Z,21.42
2019-05-19T13:36:22.863Z,21.31
2019-05-19T13:37:22.849Z,21.25
2019-05-19T13:38:22.837Z,21.09
2019-05-19T13:39:22.829Z,20.91
2019-05-19T13:40:22.830Z,20.74
2019-05-19T13:41:22.805Z,20.70
2019-05-19T13:42:22.792Z,20.31
2019-05-19T13:43:26.187Z,20.39
2019-05-19T13:44:22.773Z,20.17
2019-05-19T13:45:22.769Z,19.94
2019-05-19T13:46:22.744Z,19.95
2019-05-19T13:47:22.731Z,19.96
2019-05-19T13:48:22.721Z,19.84
2019-05-19T13:49:22.715Z,19.77
2019-05-19T13:50:22.710Z,19.66
2019-05-19T13:51:22.682Z,19.56
2019-05-19T13:52:22.668Z,19.33
2019-05-19T13:53:22.655Z,19.29
2019-05-19T13:54:22.645Z,19.13
2019-05-19T13:55:22.645Z,18.92
2019-05-19T13:56:22.618Z,18.99
2019-05-19T13:57:22.605Z,19.04
2019-05-19T13:58:22.604Z,19.06
2019-05-19T13:59:22.577Z,19.00
2019-05-19T14:00:22.582Z,18.94
2019-05-19T14:01:28.782Z,18.90
2019-05-19T14:02:22.542Z,18.76
2019-05-19T14:03:22.524Z,18.81
2019-05-19T14:04:22.512Z,18.73
2019-05-19T14:05:22.498Z,18.57
2019-05-19T14:06:22.501Z,18.45
2019-05-19T14:07:22.471Z,18.37
2019-05-19T14:08:22.460Z,18.44
2019-05-19T14:09:22.454Z,18.52
2019-05-19T14:10:22.431Z,18.60
2019-05-19T14:11:22.429Z,18.57
2019-05-19T14:12:22.404Z,18.69
2019-05-19T14:13:22.390Z,19.06
2019-05-19T14:14:22.376Z,19.33
2019-05-19T14:15:22.407Z,19.26
2019-05-19T14:16:22.374Z,19.46
2019-05-19T14:17:22.339Z,19.62
2019-05-19T14:18:22.323Z,19.84
2019-05-19T14:19:22.318Z,20.43
2019-05-19T14:20:22.293Z,21.10
2019-05-19T14:21:22.329Z,21.40
2019-05-19T14:22:22.266Z,21.77
2019-05-19T14:23:22.254Z,22.30
2019-05-19T14:24:22.245Z,21.96
2019-05-19T14:25:22.226Z,21.94
2019-05-19T14:26:22.214Z,22.12
2019-05-19T14:27:30.066Z,21.96
2019-05-19T14:28:22.190Z,21.79
2019-05-19T14:29:22.177Z,20.91
2019-05-19T14:30:22.167Z,20.76
2019-05-19T14:31:22.191Z,20.74
2019-05-19T14:32:22.157Z,20.20
2019-05-19T14:33:22.129Z,20.31
2019-05-19T14:34:22.121Z,20.28
2019-05-19T14:35:22.106Z,19.98
2019-05-19T14:36:22.094Z,19.62
2019-05-19T14:37:22.097Z,19.74
2019-05-19T14:38:22.071Z,19.69
2019-05-19T14:39:22.058Z,19.76
2019-05-19T14:40:22.047Z,19.87
2019-05-19T14:41:33.105Z,19.91
2019-05-19T14:42:22.055Z,19.77
2019-05-19T14:43:22.010Z,19.69
2019-05-19T14:44:21.999Z,19.86
2019-05-19T14:45:21.986Z,19.81
2019-05-19T14:46:21.974Z,19.77
2019-05-19T14:47:21.999Z,20.01
2019-05-19T14:48:21.957Z,19.91
2019-05-19T14:49:21.941Z,19.98
2019-05-19T14:50:21.932Z,20.01
2019-05-19T14:51:21.933Z,20.01
2019-05-19T14:52:21.920Z,19.78
2019-05-19T14:53:21.889Z,19.84
2019-05-19T14:54:21.873Z,19.76
2019-05-19T14:55:21.866Z,20.06
2019-05-19T14:56:21.850Z,20.20
2019-05-19T14:57:21.874Z,20.24
2019-05-19T14:58:21.824Z,20.38
2019-05-19T14:59:21.809Z,20.16
2019-05-19T15:00:21.799Z,20.24
2019-05-19T15:01:21.793Z,20.41
2019-05-19T15:02:21.775Z,20.39
2019-05-19T15:03:21.779Z,20.42
2019-05-19T15:04:21.748Z,20.61
2019-05-19T15:05:21.734Z,20.67
2019-05-19T15:06:21.722Z,20.67
2019-05-19T15:07:21.707Z,21.01
2019-05-19T15:08:21.709Z,21.59
2019-05-19T15:09:21.683Z,21.38
2019-05-19T15:10:21.672Z,22.00
2019-05-19T15:11:21.660Z,22.31
2019-05-19T15:12:21.648Z,22.42
2019-05-19T15:13:21.672Z,23.13
2019-05-19T15:14:21.627Z,23.28
2019-05-19T15:15:21.613Z,23.38
2019-05-19T15:16:21.600Z,23.38
2019-05-19T15:17:21.592Z,22.72
2019-05-19T15:18:21.579Z,22.76
2019-05-19T15:19:21.582Z,23.01
2019-05-19T15:20:21.557Z,23.61
2019-05-19T15:21:21.549Z,24.27
2019-05-19T15:22:21.537Z,24.34
2019-05-19T15:23:21.527Z,24.10
2019-05-19T15:24:21.533Z,24.57
2019-05-19T15:25:21.509Z,24.96
2019-05-19T15:26:21.503Z,25.27
2019-05-19T15:27:21.493Z,25.17
2019-05-19T15:28:21.481Z,24.91
2019-05-19T15:29:21.492Z,24.32
2019-05-19T15:30:21.463Z,23.76
2019-05-19T15:31:21.453Z,22.94
2019-05-19T15:32:21.446Z,22.33
2019-05-19T15:33:21.466Z,22.10
2019-05-19T15:34:21.428Z,22.42
2019-05-19T15:35:21.431Z,22.46
2019-05-19T15:36:21.409Z,22.72
2019-05-19T15:37:21.401Z,22.80
2019-05-19T15:38:21.393Z,22.95
2019-05-19T15:39:21.382Z,22.73
2019-05-19T15:40:21.386Z,22.27
2019-05-19T15:41:21.438Z,22.09
2019-05-19T15:42:21.355Z,22.02
2019-05-19T15:43:21.350Z,21.58
2019-05-19T15:44:21.336Z,21.59
2019-05-19T15:45:21.341Z,21.44
2019-05-19T15:46:21.320Z,20.84
2019-05-19T15:47:21.309Z,21.10
2019-05-19T15:48:21.297Z,20.92
2019-05-19T15:49:21.286Z,20.98
2019-05-19T15:50:21.293Z,20.99
2019-05-19T15:51:28.735Z,20.50
2019-05-19T15:52:21.257Z,20.48
2019-05-19T15:53:21.244Z,20.57
2019-05-19T15:54:21.237Z,20.73
2019-05-19T15:55:21.243Z,20.41
2019-05-19T15:56:21.215Z,20.98
2019-05-19T15:57:21.204Z,21.03
2019-05-19T15:58:21.197Z,21.24
2019-05-19T15:59:21.182Z,21.21
2019-05-19T16:00:21.172Z,21.31
2019-05-19T16:01:21.173Z,21.64
2019-05-19T16:02:21.154Z,21.58
2019-05-19T16:03:21.146Z,21.38
2019-05-19T16:04:21.128Z,21.44
2019-05-19T16:05:21.120Z,21.06
2019-05-19T16:06:21.132Z,21.06
2019-05-19T16:07:21.099Z,21.12
2019-05-19T16:08:21.092Z,21.27
2019-05-19T16:09:21.073Z,21.10
2019-05-19T16:10:21.080Z,21.29
2019-05-19T16:11:21.075Z,21.29
2019-05-19T16:12:21.042Z,21.72
2019-05-19T16:13:22.118Z,22.24
2019-05-19T16:14:21.021Z,22.54
2019-05-19T16:15:21.009Z,22.77
2019-05-19T16:16:20.998Z,22.42
2019-05-19T16:17:21.009Z,22.45
2019-05-19T16:18:20.980Z,22.33
2019-05-19T16:19:20.972Z,23.25
2019-05-19T16:20:20.962Z,23.19
2019-05-19T16:21:20.967Z,23.38
2019-05-19T16:22:20.960Z,23.57
2019-05-19T16:23:20.928Z,23.01
2019-05-19T16:24:20.921Z,22.98
2019-05-19T16:25:20.910Z,22.51
2019-05-19T16:26:20.899Z,22.52
2019-05-19T16:27:20.906Z,23.04
2019-05-19T16:28:30.404Z,23.63
2019-05-19T16:29:20.876Z,24.45
2019-05-19T16:30:20.861Z,23.75
2019-05-19T16:31:20.850Z,24.45
2019-05-19T16:32:20.892Z,24.90
2019-05-19T16:33:20.835Z,25.17
2019-05-19T16:34:20.826Z,25.62
2019-05-19T16:35:20.819Z,25.77
2019-05-19T16:36:20.815Z,25.67
2019-05-19T16:37:20.803Z,25.14
2019-05-19T16:38:20.809Z,23.75
2019-05-19T16:39:20.786Z,24.16
2019-05-19T16:40:20.782Z,23.20
2019-05-19T16:41:20.771Z,23.12
2019-05-19T16:42:20.765Z,23.15
2019-05-19T16:43:20.768Z,23.13
2019-05-19T16:44:20.747Z,23.57
2019-05-19T16:45:20.740Z,23.43
2019-05-19T16:46:20.731Z,23.33
2019-05-19T16:47:20.722Z,23.23
2019-05-19T16:48:23.271Z,23.01
2019-05-19T16:49:20.708Z,22.83
2019-05-19T16:50:20.710Z,22.72
2019-05-19T16:51:20.693Z,22.31
2019-05-19T16:52:20.704Z,22.15
2019-05-19T16:53:20.675Z,21.98
2019-05-19T16:54:20.681Z,21.83
2019-05-19T16:55:20.658Z,22.00
2019-05-19T16:56:20.648Z,21.47
2019-05-19T16:57:20.652Z,21.24
2019-05-19T16:58:21.810Z,21.31
2019-05-19T16:59:20.654Z,21.25
2019-05-19T17:00:20.623Z,21.03
2019-05-19T17:01:20.604Z,20.54
2019-05-19T17:02:20.592Z,20.41
2019-05-19T17:03:20.595Z,20.41
2019-05-19T17:04:20.585Z,20.18
2019-05-19T17:05:20.562Z,20.14
2019-05-19T17:06:20.551Z,20.26
2019-05-19T17:07:20.547Z,20.43
2019-05-19T17:08:20.532Z,20.47
2019-05-19T17:09:20.657Z,20.59
2019-05-19T17:10:20.526Z,20.69
2019-05-19T17:11:20.499Z,20.74
2019-05-19T17:12:20.487Z,20.26
2019-05-19T17:13:20.476Z,20.38
2019-05-19T17:14:20.465Z,20.23
2019-05-19T17:15:20.471Z,20.21
2019-05-19T17:16:20.443Z,20.20
2019-05-19T17:17:20.433Z,20.11
2019-05-19T17:18:20.421Z,20.05
2019-05-19T17:19:20.412Z,19.91
2019-05-19T17:20:20.426Z,19.76
2019-05-19T17:21:20.387Z,19.76
2019-05-19T17:22:20.374Z,19.65
2019-05-19T17:23:20.361Z,19.73
2019-05-19T17:24:20.351Z,19.63
2019-05-19T17:25:20.342Z,19.69
2019-05-19T17:26:20.342Z,19.73
2019-05-19T17:27:20.315Z,19.78
2019-05-19T17:28:20.300Z,19.95
2019-05-19T17:29:20.289Z,19.91
2019-05-19T17:30:20.278Z,20.20
2019-05-19T17:31:20.278Z,20.54
2019-05-19T17:32:20.252Z,20.39
2019-05-19T17:33:20.244Z,20.43
2019-05-19T17:34:20.229Z,20.66
2019-05-19T17:35:20.219Z,20.50
2019-05-19T17:36:20.240Z,20.41
2019-05-19T17:37:20.192Z,20.42
2019-05-19T17:38:20.178Z,20.47
2019-05-19T17:39:20.182Z,20.59
2019-05-19T17:40:20.153Z,20.74
2019-05-19T17:41:20.144Z,20.92
2019-05-19T17:42:20.143Z,20.99
2019-05-19T17:43:20.120Z,20.66
2019-05-19T17:44:20.108Z,20.69
2019-05-19T17:45:20.091Z,20.08
2019-05-19T17:46:20.087Z,20.08
2019-05-19T17:47:20.105Z,20.01
2019-05-19T17:48:26.591Z,19.95
2019-05-19T17:49:20.048Z,19.81
2019-05-19T17:50:20.037Z,19.76
2019-05-19T17:51:20.033Z,19.83
2019-05-19T17:52:20.008Z,19.84
2019-05-19T17:53:19.994Z,19.78
2019-05-19T17:54:20.290Z,19.78
2019-05-19T17:55:19.968Z,19.87
2019-05-19T17:56:19.992Z,19.87
2019-05-19T17:57:19.950Z,19.91
2019-05-19T17:58:19.933Z,19.96
2019-05-19T17:59:19.916Z,20.08
2019-05-19T18:00:19.901Z,20.01
2019-05-19T18:01:19.891Z,20.10
2019-05-19T18:02:19.893Z,19.96
2019-05-19T18:03:19.861Z,19.86
2019-05-19T18:04:19.849Z,19.84
2019-05-19T18:05:19.839Z,19.56
2019-05-19T18:06:19.824Z,19.44
2019-05-19T18:07:19.825Z,19.36
2019-05-19T18:08:19.797Z,19.25
2019-05-19T18:09:19.785Z,19.33
2019-05-19T18:10:19.773Z,19.18
2019-05-19T18:11:19.758Z,18.99
2019-05-19T18:12:19.743Z,19.02
2019-05-19T18:13:19.745Z,19.00
2019-05-19T18:14:19.716Z,18.92
2019-05-19T18:15:19.707Z,18.84
2019-05-19T18:16:19.692Z,18.87
2019-05-19T18:17:19.673Z,18.67
2019-05-19T18:18:19.677Z,18.69
2019-05-19T18:19:19.647Z,18.67
2019-05-19T18:20:23.861Z,18.76
2019-05-19T18:21:19.619Z,18.69
2019-05-19T18:22:19.606Z,18.47
2019-05-19T18:23:19.606Z,18.37
2019-05-19T18:24:19.578Z,18.27
2019-05-19T18:25:19.563Z,18.20
2019-05-19T18:26:19.549Z,18.10
2019-05-19T18:27:19.544Z,18.18
2019-05-19T18:28:19.538Z,18.08
2019-05-19T18:29:30.577Z,18.08
2019-05-19T18:30:19.494Z,18.08
2019-05-19T18:31:19.477Z,18.10
2019-05-19T18:32:19.463Z,18.03
2019-05-19T18:33:19.464Z,18.08
2019-05-19T18:34:19.434Z,17.96
2019-05-19T18:35:19.418Z,18.10
2019-05-19T18:36:19.403Z,17.95
2019-05-19T18:37:19.394Z,17.90
2019-05-19T18:38:19.389Z,17.92
2019-05-19T18:39:19.377Z,17.97
2019-05-19T18:40:19.343Z,17.89
2019-05-19T18:41:19.329Z,17.93
2019-05-19T18:42:20.586Z,17.72
2019-05-19T18:43:19.319Z,17.78
2019-05-19T18:44:19.286Z,17.75
2019-05-19T18:45:19.276Z,17.63
2019-05-19T18:46:19.257Z,17.64
2019-05-19T18:47:19.243Z,17.59
2019-05-19T18:48:19.228Z,17.58
2019-05-19T18:49:19.294Z,17.56
2019-05-19T18:50:19.196Z,17.44